Aeroporto :
LOGIN :

Iscrizione | Disclaimer

   EN    FR    IT 

 










Sommario :    VFR   VFR Marginale   IFR   IFR Intensivo   IFR Molto Intensivo
Visibilità : 
Base nubi : 
>= 8 km
>= 3000ft
5 / 8 km
1000 / 3000 ft
1500m / 5 km
500 / 1000 ft
800 / 1500m
200 / 500 ft
< 800m
< 200 ft
Simboli :   Temporali  Nebbia  Neve Forte  Precipitazioni Forti  Vento > 20 kt
SIGMETs :   Varie  Temporali  Ghiacco  Turbolenza  Onda orograficha  Ceneri Vulcaniche






- Altitudine del aeroporto : 313 ft
- Codice IATA : LEH


LFOH - Le Havre Octeville

ULTIMO METAR :
  • 210530Z AUTO 11009KT 1000 0900 R22/1100N BCFG VV/// 02/02 Q1003

METARs OBSOLETI :
  • 210500Z AUTO 12011KT 2000 BR OVC002 02/02 Q1004
  • 210430Z AUTO 12012KT 1700 BR OVC002 02/02 Q1004
  • 210400Z AUTO 12010KT 1800 BR OVC002 02/02 Q1004
  • 210330Z AUTO 13013KT 1800 BR OVC002 02/02 Q1004
  • 210300Z AUTO 13012KT 2600 BR OVC002 02/02 Q1005

TAF TAF LFOH
Valido dal 21 a 06 ore il 22 a 06 ore UTC


210500Z 2106/2206 14012KT 3000 BR OVC002
TEMPO 2106/2110 0500 FG VV///
BECMG 2110/2113 7000 NSW OVC007
TEMPO 2113/2118 3000 RA OVC003
BECMG 2123/2201 NSC
ATIS : +33 2 35 54 64 93



MetMap, La meteo Aeronautica in un colpo d'occhio ! - Copyright ORBIFLY Dicembre 2007 - Disclaimer

ORBIFLY MET'MAP TEAM :

Programmazione e sviluppo : Alexandra Zaïnal
Concezione e sviluppo : Baudouin d'Aumeries
Co-Programmazione e sviluppo : Marc-Olivier Méhu
Supporto tecnico e logistico : Manuel Goepfert
Aiuto per la traduzione : Arnaldo La Scala

Contatto : metmap@orbifly.com




FONTI E CREDITI :

   NOAA